Elgoibar, Spain
Current Conditions -  °F | °C
As of 9:30 PM on Friday 21 Nov 2014 (Local Time) from LEBB Reporting Station
Clear Clear  
Wind Chill: 64°   Ceiling: Unl
Heat Index: 64°   Visibility: 6mi
Dew Point: 50°   Wind: 12mph
Humidity: 59%   Direction: 100°E
Pressure: 29.91"   Gusts: 23mph
Location:  43.22°N, 2.41°W
Report Text: LEBB 212030Z 10010G20KT 060V160 CAVOK 18/10 Q1013 NOSIG
Loading
Personal Weather Stations






























Interactive Weather Map New forecast layout! Learn more

10-Day Weather Forecast

Advertisements
Track Severe Weather on mobile